Terminal Aerodrome Forecast
Issued by NWS Charleston, SC

Home | Current Version | Previous Version | Text Only | Print | Product List | Glossary On
Versions: 1 2 3 4 5 6 7 8 9 10 11 12 13 14 15 16 17 18
853
FTUS42 KCHS 281353 AAA
TAFSAV
TAF AMD
KSAV 281353Z 2814/0112 VRB03KT P6SM OVC009
     FM281500 12005KT P6SM SCT015 BKN035
     FM281800 17010KT P6SM BKN050
     FM010100 16006KT P6SM SCT015 BKN070
     FM010700 18005KT 6SM BR SCT008 BKN015=

USA.gov is the U.S. government's official web portal to all federal, state and local government web resources and services.